createdAt,value
2019-05-23T00:02:19.911Z,12.80
2019-05-23T00:05:05.983Z,12.70
2019-05-23T00:07:36.936Z,12.70
2019-05-23T00:10:09.252Z,12.50
2019-05-23T00:12:47.879Z,12.50
2019-05-23T00:15:25.470Z,12.50
2019-05-23T00:17:57.300Z,12.40
2019-05-23T00:20:28.423Z,12.40
2019-05-23T00:22:59.599Z,12.40
2019-05-23T00:25:30.955Z,12.40
2019-05-23T00:28:01.762Z,12.40
2019-05-23T00:30:46.360Z,12.40
2019-05-23T00:33:19.603Z,12.40
2019-05-23T00:35:51.363Z,12.40
2019-05-23T00:38:22.250Z,12.40
2019-05-23T00:40:53.694Z,12.40
2019-05-23T00:43:25.631Z,12.40
2019-05-23T00:45:57.079Z,12.40
2019-05-23T00:48:28.517Z,12.40
2019-05-23T00:50:58.911Z,12.50
2019-05-23T00:53:29.755Z,12.50
2019-05-23T00:56:01.381Z,12.60
2019-05-23T00:58:34.278Z,12.70
2019-05-23T01:01:04.663Z,12.70
2019-05-23T01:03:35.633Z,12.70
2019-05-23T01:06:06.785Z,12.70
2019-05-23T01:08:38.230Z,12.80
2019-05-23T01:11:09.292Z,12.80
2019-05-23T01:13:39.711Z,12.80
2019-05-23T01:16:11.634Z,12.80
2019-05-23T01:18:42.213Z,12.80
2019-05-23T01:21:34.915Z,12.80
2019-05-23T01:24:16.211Z,12.90
2019-05-23T01:26:48.059Z,12.80
2019-05-23T01:29:19.464Z,12.80
2019-05-23T01:31:53.630Z,12.80
2019-05-23T01:34:26.981Z,12.80
2019-05-23T01:36:58.142Z,12.90
2019-05-23T01:39:29.373Z,12.90
2019-05-23T01:42:00.339Z,12.90
2019-05-23T01:44:31.983Z,13.00
2019-05-23T01:47:02.439Z,13.00
2019-05-23T01:49:33.603Z,13.00
2019-05-23T01:52:05.631Z,13.10
2019-05-23T01:54:36.703Z,13.20
2019-05-23T01:57:07.192Z,13.20
2019-05-23T01:59:38.037Z,13.20
2019-05-23T02:02:08.635Z,13.30
2019-05-23T02:04:39.002Z,13.30
2019-05-23T02:07:10.448Z,13.30
2019-05-23T02:09:41.725Z,13.30
2019-05-23T02:12:12.562Z,13.30
2019-05-23T02:14:45.130Z,13.30
2019-05-23T02:17:16.022Z,13.30
2019-05-23T02:19:48.080Z,13.20
2019-05-23T02:22:18.421Z,13.20
2019-05-23T02:24:48.879Z,13.20
2019-05-23T02:27:20.363Z,13.20
2019-05-23T02:29:50.710Z,13.20
2019-05-23T02:32:23.043Z,13.10
2019-05-23T02:34:54.501Z,13.10
2019-05-23T02:37:42.156Z,13.00
2019-05-23T02:40:35.088Z,13.00
2019-05-23T02:43:07.160Z,13.00
2019-05-23T02:45:44.120Z,13.00
2019-05-23T02:48:20.384Z,13.00
2019-05-23T02:50:56.535Z,13.10
2019-05-23T02:53:30.566Z,13.10
2019-05-23T02:56:03.519Z,13.10
2019-05-23T02:58:55.649Z,13.10
2019-05-23T03:01:36.120Z,13.10
2019-05-23T03:04:12.583Z,13.20
2019-05-23T03:06:44.207Z,13.20
2019-05-23T03:09:16.738Z,13.20
2019-05-23T03:11:49.431Z,13.10
2019-05-23T03:14:19.826Z,13.10
2019-05-23T03:16:53.054Z,13.10
2019-05-23T03:19:34.426Z,13.00
2019-05-23T03:22:25.186Z,13.00
2019-05-23T03:24:57.560Z,13.00
2019-05-23T03:27:29.147Z,12.90
2019-05-23T03:30:00.695Z,12.80
2019-05-23T03:32:46.118Z,12.70
2019-05-23T03:35:35.867Z,12.70
2019-05-23T03:38:06.331Z,12.60
2019-05-23T03:40:37.588Z,12.60
2019-05-23T03:43:08.321Z,12.50
2019-05-23T03:45:44.076Z,12.50
2019-05-23T03:48:14.942Z,12.50
2019-05-23T03:50:46.924Z,12.40
2019-05-23T03:53:18.895Z,12.40
2019-05-23T03:55:50.253Z,12.40
2019-05-23T03:58:21.295Z,12.40
2019-05-23T04:00:53.430Z,12.40
2019-05-23T04:03:25.021Z,12.40
2019-05-23T04:05:56.117Z,12.40
2019-05-23T04:08:26.939Z,12.40
2019-05-23T04:10:58.232Z,12.40
2019-05-23T04:13:29.244Z,12.40
2019-05-23T04:16:00.446Z,12.40
2019-05-23T04:18:31.095Z,12.50
2019-05-23T04:21:02.048Z,12.60
2019-05-23T04:23:32.399Z,12.60
2019-05-23T04:26:03.070Z,12.70
2019-05-23T04:28:33.411Z,12.80
2019-05-23T04:31:04.762Z,12.80
2019-05-23T04:33:35.298Z,12.90
2019-05-23T04:36:06.330Z,13.00
2019-05-23T04:38:40.611Z,13.00
2019-05-23T04:41:11.601Z,13.10
2019-05-23T04:43:41.952Z,13.20
2019-05-23T04:46:12.407Z,13.30
2019-05-23T04:48:42.888Z,13.40
2019-05-23T04:51:14.139Z,13.50
2019-05-23T04:53:44.895Z,13.60
2019-05-23T04:56:15.838Z,13.70
2019-05-23T04:58:47.076Z,13.90
2019-05-23T05:01:18.674Z,14.00
2019-05-23T05:03:49.067Z,14.10
2019-05-23T05:06:20.366Z,14.30
2019-05-23T05:08:52.471Z,14.40
2019-05-23T05:11:22.880Z,14.50
2019-05-23T05:13:53.833Z,14.70
2019-05-23T05:16:24.192Z,14.80
2019-05-23T05:18:55.248Z,14.90
2019-05-23T05:21:25.911Z,15.00
2019-05-23T05:23:56.362Z,15.00
2019-05-23T05:26:26.706Z,15.10
2019-05-23T05:28:57.266Z,15.20
2019-05-23T05:31:27.828Z,15.30
2019-05-23T05:33:58.356Z,15.30
2019-05-23T05:36:28.642Z,15.30
2019-05-23T05:38:59.570Z,15.30
2019-05-23T05:41:30.069Z,15.30
2019-05-23T05:44:00.487Z,15.30
2019-05-23T05:46:31.763Z,15.40
2019-05-23T05:49:02.164Z,15.40
2019-05-23T05:51:32.598Z,15.40
2019-05-23T05:54:03.938Z,15.40
2019-05-23T05:56:34.387Z,15.40
2019-05-23T05:59:04.843Z,15.40
2019-05-23T06:01:35.697Z,15.40
2019-05-23T06:04:06.570Z,15.50
2019-05-23T06:06:50.179Z,15.50
2019-05-23T06:09:24.140Z,15.40
2019-05-23T06:11:54.485Z,15.40
2019-05-23T06:14:25.340Z,15.30
2019-05-23T06:16:56.719Z,15.30
2019-05-23T06:19:27.178Z,15.20
2019-05-23T06:21:57.619Z,15.20
2019-05-23T06:24:42.157Z,15.20
2019-05-23T06:27:00.800Z,15.20
2019-05-23T06:29:31.238Z,15.20
2019-05-23T06:32:02.199Z,15.30
2019-05-23T06:34:32.952Z,15.30
2019-05-23T06:37:04.722Z,15.30
2019-05-23T06:39:35.083Z,15.40
2019-05-23T06:42:05.536Z,15.40
2019-05-23T06:44:36.441Z,15.50
2019-05-23T06:47:07.778Z,15.40
2019-05-23T06:49:38.235Z,15.40
2019-05-23T06:52:08.672Z,15.50
2019-05-23T06:54:39.222Z,15.60
2019-05-23T06:57:09.682Z,15.60
2019-05-23T06:59:40.055Z,15.70
2019-05-23T07:02:10.448Z,15.90
2019-05-23T07:04:41.070Z,16.00
2019-05-23T07:07:11.724Z,16.10
2019-05-23T07:09:42.061Z,16.20
2019-05-23T07:12:12.402Z,16.30
2019-05-23T07:14:42.892Z,16.30
2019-05-23T07:17:13.256Z,16.50
2019-05-23T07:19:43.733Z,16.60
2019-05-23T07:22:18.066Z,16.70
2019-05-23T07:24:57.338Z,16.80
2019-05-23T07:27:20.207Z,16.90
2019-05-23T07:29:51.179Z,17.00
2019-05-23T07:32:21.559Z,17.40
2019-05-23T07:34:51.995Z,17.80
2019-05-23T07:37:22.378Z,18.10
2019-05-23T07:39:53.029Z,18.40
2019-05-23T07:42:23.758Z,18.70
2019-05-23T07:44:55.610Z,19.00
2019-05-23T07:47:26.685Z,19.30
2019-05-23T07:49:57.099Z,19.40
2019-05-23T07:52:27.747Z,19.50
2019-05-23T07:55:03.520Z,19.50
2019-05-23T07:57:33.907Z,19.70
2019-05-23T08:00:06.098Z,19.90
2019-05-23T08:02:38.959Z,19.90
2019-05-23T08:05:11.014Z,20.00
2019-05-23T08:07:41.543Z,19.90
2019-05-23T08:10:12.210Z,19.80
2019-05-23T08:12:43.114Z,19.80
2019-05-23T08:15:13.663Z,19.70
2019-05-23T08:17:44.619Z,19.80
2019-05-23T08:20:15.578Z,19.90
2019-05-23T08:22:46.391Z,19.90
2019-05-23T08:25:16.835Z,20.10
2019-05-23T08:27:47.266Z,20.20
2019-05-23T08:30:19.107Z,20.40
2019-05-23T08:32:49.471Z,20.70
2019-05-23T08:35:20.159Z,20.90
2019-05-23T08:37:51.043Z,21.10
2019-05-23T08:40:22.497Z,21.30
2019-05-23T08:42:53.089Z,21.50
2019-05-23T08:45:23.571Z,21.50
2019-05-23T08:47:54.112Z,21.30
2019-05-23T08:50:24.579Z,21.30
2019-05-23T08:52:54.867Z,21.30
2019-05-23T08:55:26.528Z,21.20
2019-05-23T08:57:58.059Z,21.10
2019-05-23T09:00:29.819Z,20.90
2019-05-23T09:03:00.075Z,20.90
2019-05-23T09:05:32.217Z,20.90
2019-05-23T09:08:02.782Z,20.60
2019-05-23T09:10:35.131Z,20.40
2019-05-23T09:13:05.724Z,20.30
2019-05-23T09:15:36.195Z,20.10
2019-05-23T09:18:06.768Z,20.00
2019-05-23T09:20:37.328Z,19.90
2019-05-23T09:23:07.772Z,19.70
2019-05-23T09:25:38.362Z,19.70
2019-05-23T09:28:09.611Z,19.70
2019-05-23T09:30:40.072Z,19.60
2019-05-23T09:33:10.936Z,19.70
2019-05-23T09:35:41.779Z,19.70
2019-05-23T09:38:12.131Z,19.60
2019-05-23T09:40:42.475Z,19.70
2019-05-23T09:43:13.423Z,19.90
2019-05-23T09:45:43.809Z,20.00
2019-05-23T09:48:14.171Z,20.10
2019-05-23T09:50:44.666Z,20.20
2019-05-23T09:53:15.012Z,20.20
2019-05-23T09:55:45.354Z,20.10
2019-05-23T09:58:15.979Z,20.10
2019-05-23T10:00:46.525Z,20.20
2019-05-23T10:03:17.180Z,20.40
2019-05-23T10:05:47.740Z,20.40
2019-05-23T10:08:18.122Z,20.50
2019-05-23T10:10:48.571Z,20.70
2019-05-23T10:13:28.981Z,20.80
2019-05-23T10:16:08.685Z,20.90
2019-05-23T10:18:40.087Z,20.80
2019-05-23T10:21:10.847Z,21.00
2019-05-23T10:23:41.188Z,21.20
2019-05-23T10:26:11.575Z,21.20
2019-05-23T10:28:42.010Z,21.20
2019-05-23T10:31:13.279Z,21.10
2019-05-23T10:33:43.642Z,21.10
2019-05-23T10:36:14.099Z,21.10
2019-05-23T10:38:44.716Z,21.20
2019-05-23T10:41:15.171Z,21.10
2019-05-23T10:43:45.669Z,21.00
2019-05-23T10:46:16.450Z,21.00
2019-05-23T10:48:47.295Z,21.00
2019-05-23T10:51:17.712Z,21.10
2019-05-23T10:53:48.066Z,21.00
2019-05-23T10:56:20.517Z,21.10
2019-05-23T10:58:50.877Z,21.10
2019-05-23T11:01:21.515Z,21.10
2019-05-23T11:03:52.367Z,21.20
2019-05-23T11:06:23.427Z,21.20
2019-05-23T11:08:53.908Z,21.30
2019-05-23T11:11:24.612Z,21.40
2019-05-23T11:13:55.014Z,21.50
2019-05-23T11:16:26.301Z,21.60
2019-05-23T11:18:56.792Z,21.70
2019-05-23T11:21:27.605Z,21.60
2019-05-23T11:23:58.472Z,21.70
2019-05-23T11:26:28.836Z,21.80
2019-05-23T11:28:59.271Z,21.80
2019-05-23T11:31:30.332Z,21.90
2019-05-23T11:34:01.035Z,22.00
2019-05-23T11:36:36.184Z,22.00
2019-05-23T11:39:03.784Z,22.00
2019-05-23T11:41:34.751Z,21.90
2019-05-23T11:44:05.490Z,22.10
2019-05-23T11:46:36.144Z,22.00
2019-05-23T11:49:07.279Z,22.00
2019-05-23T11:51:38.007Z,22.10
2019-05-23T11:54:09.942Z,21.80
2019-05-23T11:56:42.326Z,21.70
2019-05-23T11:59:12.794Z,21.60
2019-05-23T12:02:02.079Z,21.70
2019-05-23T12:04:36.465Z,21.80
2019-05-23T12:07:17.119Z,22.10
2019-05-23T12:09:47.515Z,22.20
2019-05-23T12:12:17.935Z,22.40
2019-05-23T12:14:48.383Z,22.40
2019-05-23T12:17:20.520Z,22.50
2019-05-23T12:19:50.981Z,22.40
2019-05-23T12:22:21.635Z,22.50
2019-05-23T12:24:52.014Z,22.50
2019-05-23T12:27:22.383Z,22.50
2019-05-23T12:29:52.892Z,22.40
2019-05-23T12:32:23.624Z,22.60
2019-05-23T12:35:09.304Z,22.80
2019-05-23T12:37:26.127Z,22.90
2019-05-23T12:39:56.561Z,23.00
2019-05-23T12:42:26.907Z,23.30
2019-05-23T12:44:57.360Z,23.30
2019-05-23T12:47:49.873Z,23.30
2019-05-23T12:50:23.640Z,23.40
2019-05-23T12:52:54.012Z,23.20
2019-05-23T12:55:24.585Z,23.20
2019-05-23T12:57:55.014Z,23.10
2019-05-23T13:00:43.065Z,23.20
2019-05-23T13:03:14.951Z,23.20
2019-05-23T13:05:45.533Z,23.50
2019-05-23T13:08:16.601Z,23.60
2019-05-23T13:10:47.056Z,23.80
2019-05-23T13:13:17.615Z,24.00
2019-05-23T13:15:47.987Z,24.20
2019-05-23T13:18:18.351Z,24.30
2019-05-23T13:20:48.912Z,24.20
2019-05-23T13:23:21.350Z,24.30
2019-05-23T13:25:51.671Z,24.10
2019-05-23T13:28:22.271Z,23.80
2019-05-23T13:30:52.679Z,23.70
2019-05-23T13:33:23.523Z,23.60
2019-05-23T13:35:53.879Z,23.50
2019-05-23T13:38:24.354Z,23.40
2019-05-23T13:40:54.699Z,23.30
2019-05-23T13:43:25.087Z,23.30
2019-05-23T13:45:55.526Z,23.30
2019-05-23T13:48:28.315Z,23.20
2019-05-23T13:50:58.694Z,23.10
2019-05-23T13:53:29.163Z,23.10
2019-05-23T13:55:59.830Z,23.10
2019-05-23T13:58:30.372Z,23.00
2019-05-23T14:01:00.796Z,22.90
2019-05-23T14:03:31.133Z,22.80
2019-05-23T14:06:02.197Z,22.70
2019-05-23T14:08:32.750Z,22.70
2019-05-23T14:11:03.359Z,22.70
2019-05-23T14:13:33.812Z,22.70
2019-05-23T14:16:05.893Z,22.70
2019-05-23T14:18:37.054Z,22.60
2019-05-23T14:21:07.427Z,22.50
2019-05-23T14:23:37.881Z,22.50
2019-05-23T14:26:09.136Z,22.40
2019-05-23T14:28:39.910Z,22.30
2019-05-23T14:31:20.866Z,22.20
2019-05-23T14:34:10.266Z,22.00
2019-05-23T14:36:59.573Z,22.00
2019-05-23T14:39:42.367Z,22.00
2019-05-23T14:42:52.876Z,22.00
2019-05-23T14:45:38.013Z,22.00
2019-05-23T14:48:30.359Z,22.00
2019-05-23T14:51:29.133Z,22.00
2019-05-23T14:54:05.282Z,22.10
2019-05-23T14:56:36.912Z,22.10
2019-05-23T14:59:07.302Z,22.20
2019-05-23T15:01:37.957Z,22.10
2019-05-23T15:04:08.328Z,22.00
2019-05-23T15:06:38.909Z,22.00
2019-05-23T15:09:10.021Z,22.10
2019-05-23T15:11:40.460Z,22.20
2019-05-23T15:14:10.824Z,22.20
2019-05-23T15:16:41.175Z,22.20
2019-05-23T15:19:11.695Z,22.20
2019-05-23T15:21:42.047Z,22.20
2019-05-23T15:24:12.487Z,22.10
2019-05-23T15:26:42.840Z,22.10
2019-05-23T15:29:13.314Z,22.00
2019-05-23T15:32:00.619Z,21.90
2019-05-23T15:34:16.031Z,21.90
2019-05-23T15:36:46.416Z,21.80
2019-05-23T15:39:18.375Z,21.80
2019-05-23T15:41:48.774Z,21.70
2019-05-23T15:44:26.502Z,21.70
2019-05-23T15:46:51.614Z,21.60
2019-05-23T15:49:22.879Z,21.40
2019-05-23T15:52:11.029Z,21.40
2019-05-23T15:55:00.335Z,21.30
2019-05-23T15:57:41.803Z,21.10
2019-05-23T16:00:31.916Z,21.10
2019-05-23T16:03:13.712Z,21.10
2019-05-23T16:05:43.048Z,21.00
2019-05-23T16:08:13.601Z,21.00
2019-05-23T16:10:44.547Z,20.90
2019-05-23T16:13:15.090Z,20.90
2019-05-23T16:15:45.449Z,20.80
2019-05-23T16:18:16.092Z,20.80
2019-05-23T16:20:46.455Z,20.80
2019-05-23T16:23:16.879Z,20.70
2019-05-23T16:25:47.235Z,20.60
2019-05-23T16:28:17.600Z,20.60
2019-05-23T16:30:48.259Z,20.50
2019-05-23T16:33:18.611Z,20.40
2019-05-23T16:35:49.051Z,20.40
2019-05-23T16:38:19.429Z,20.30
2019-05-23T16:40:49.983Z,20.20
2019-05-23T16:43:20.339Z,20.20
2019-05-23T16:45:50.936Z,20.20
2019-05-23T16:48:21.758Z,20.20
2019-05-23T16:50:52.204Z,20.20
2019-05-23T16:53:22.687Z,20.10
2019-05-23T16:56:01.941Z,20.00
2019-05-23T16:58:50.103Z,19.90
2019-05-23T17:01:37.574Z,19.80
2019-05-23T17:04:19.632Z,19.70
2019-05-23T17:07:01.536Z,19.50
2019-05-23T17:10:06.694Z,19.40
2019-05-23T17:12:37.395Z,19.40
2019-05-23T17:15:26.751Z,19.40
2019-05-23T17:18:12.149Z,19.30
2019-05-23T17:20:53.311Z,19.10
2019-05-23T17:23:44.627Z,19.00
2019-05-23T17:26:40.302Z,18.90
2019-05-23T17:29:18.564Z,18.80
2019-05-23T17:31:50.548Z,18.70
2019-05-23T17:34:21.210Z,18.60
2019-05-23T17:36:51.560Z,18.50
2019-05-23T17:39:24.037Z,18.50
2019-05-23T17:41:54.576Z,18.40
2019-05-23T17:44:24.972Z,18.40
2019-05-23T17:46:55.626Z,18.30
2019-05-23T17:49:25.978Z,18.20
2019-05-23T17:51:56.329Z,18.20
2019-05-23T17:54:26.700Z,18.10
2019-05-23T17:56:57.123Z,18.00
2019-05-23T17:59:27.414Z,18.00
2019-05-23T18:01:58.250Z,17.90
2019-05-23T18:04:29.061Z,17.90
2019-05-23T18:06:59.732Z,17.80
2019-05-23T18:09:30.950Z,17.80
2019-05-23T18:12:01.618Z,17.70
2019-05-23T18:14:31.971Z,17.70
2019-05-23T18:17:02.968Z,17.70
2019-05-23T18:19:34.024Z,17.60
2019-05-23T18:22:05.747Z,17.60
2019-05-23T18:24:36.963Z,17.60
2019-05-23T18:27:09.075Z,17.50
2019-05-23T18:29:39.471Z,17.50
2019-05-23T18:32:15.321Z,17.50
2019-05-23T18:34:45.683Z,17.40
2019-05-23T18:37:16.373Z,17.30
2019-05-23T18:39:46.727Z,17.20
2019-05-23T18:42:17.547Z,17.20
2019-05-23T18:44:47.827Z,17.10
2019-05-23T18:47:39.995Z,17.10
2019-05-23T18:50:11.450Z,17.00
2019-05-23T18:52:41.812Z,16.90
2019-05-23T18:55:12.610Z,16.90
2019-05-23T18:57:43.152Z,16.80
2019-05-23T19:00:14.036Z,16.70
2019-05-23T19:02:44.480Z,16.60
2019-05-23T19:05:16.223Z,16.50
2019-05-23T19:07:46.675Z,16.50
2019-05-23T19:10:18.141Z,16.40
2019-05-23T19:12:48.528Z,16.40
2019-05-23T19:15:18.942Z,16.30
2019-05-23T19:17:49.442Z,16.40
2019-05-23T19:20:19.994Z,16.40
2019-05-23T19:22:50.848Z,16.30
2019-05-23T19:25:21.207Z,16.30
2019-05-23T19:27:51.794Z,16.20
2019-05-23T19:30:22.292Z,16.20
2019-05-23T19:32:52.664Z,16.20
2019-05-23T19:35:23.149Z,16.20
2019-05-23T19:37:53.608Z,16.10
2019-05-23T19:40:24.188Z,16.00
2019-05-23T19:42:54.772Z,16.00
2019-05-23T19:45:25.373Z,15.90
2019-05-23T19:47:55.873Z,15.90
2019-05-23T19:50:27.125Z,16.00
2019-05-23T19:52:57.523Z,16.00
2019-05-23T19:55:28.082Z,15.90
2019-05-23T19:57:58.606Z,15.90
2019-05-23T20:00:30.582Z,15.80
2019-05-23T20:03:03.856Z,15.80
2019-05-23T20:05:35.886Z,15.80
2019-05-23T20:08:06.564Z,15.70
2019-05-23T20:10:37.582Z,15.60
2019-05-23T20:13:08.204Z,15.60
2019-05-23T20:15:38.750Z,15.60
2019-05-23T20:18:10.781Z,15.60
2019-05-23T20:20:41.543Z,15.50
2019-05-23T20:23:15.476Z,15.50
2019-05-23T20:25:44.411Z,15.40
2019-05-23T20:28:14.771Z,15.40
2019-05-23T20:30:53.941Z,15.30
2019-05-23T20:33:24.403Z,15.30
2019-05-23T20:35:54.952Z,15.30
2019-05-23T20:38:26.483Z,15.30
2019-05-23T20:40:57.213Z,15.30
2019-05-23T20:43:27.551Z,15.20
2019-05-23T20:45:57.834Z,15.20
2019-05-23T20:48:28.525Z,15.10
2019-05-23T20:50:58.862Z,15.10
2019-05-23T20:53:29.260Z,15.00
2019-05-23T20:55:59.955Z,14.90
2019-05-23T20:58:30.294Z,14.90
2019-05-23T21:01:06.691Z,14.80
2019-05-23T21:03:37.350Z,14.80
2019-05-23T21:06:07.821Z,14.80
2019-05-23T21:08:38.299Z,14.80
2019-05-23T21:11:08.678Z,14.80
2019-05-23T21:13:39.036Z,14.70
2019-05-23T21:16:09.391Z,14.70
2019-05-23T21:18:39.988Z,14.70
2019-05-23T21:21:10.331Z,14.60
2019-05-23T21:23:40.691Z,14.60
2019-05-23T21:26:11.262Z,14.60
2019-05-23T21:28:42.085Z,14.60
2019-05-23T21:31:15.895Z,14.50
2019-05-23T21:33:46.479Z,14.40
2019-05-23T21:36:16.971Z,14.40
2019-05-23T21:38:47.547Z,14.30
2019-05-23T21:41:18.300Z,14.20
2019-05-23T21:43:50.246Z,14.10
2019-05-23T21:46:20.747Z,14.10
2019-05-23T21:48:51.078Z,14.10
2019-05-23T21:51:21.362Z,14.10
2019-05-23T21:53:51.728Z,14.00
2019-05-23T21:56:22.187Z,14.00
2019-05-23T21:58:52.642Z,13.90
2019-05-23T22:01:49.023Z,13.90
2019-05-23T22:04:24.744Z,13.80
2019-05-23T22:06:56.936Z,13.70
2019-05-23T22:09:27.422Z,13.70
2019-05-23T22:11:57.792Z,13.60
2019-05-23T22:14:28.223Z,13.60
2019-05-23T22:16:58.663Z,13.50
2019-05-23T22:19:28.986Z,13.50
2019-05-23T22:21:59.256Z,13.50
2019-05-23T22:24:29.921Z,13.50
2019-05-23T22:27:00.261Z,13.50
2019-05-23T22:29:30.734Z,13.40
2019-05-23T22:32:01.075Z,13.40
2019-05-23T22:34:56.784Z,13.40
2019-05-23T22:37:31.179Z,13.30
2019-05-23T22:40:01.583Z,13.20
2019-05-23T22:42:33.838Z,13.10
2019-05-23T22:45:06.268Z,13.00
2019-05-23T22:47:36.669Z,13.00
2019-05-23T22:50:07.410Z,13.00
2019-05-23T22:52:37.767Z,12.90
2019-05-23T22:55:08.134Z,12.80
2019-05-23T22:57:38.675Z,12.70
2019-05-23T23:00:08.955Z,12.70
2019-05-23T23:02:39.311Z,12.60
2019-05-23T23:05:09.852Z,12.60
2019-05-23T23:07:40.249Z,12.50
2019-05-23T23:10:11.123Z,12.50
2019-05-23T23:12:41.533Z,12.50
2019-05-23T23:15:12.062Z,12.50
2019-05-23T23:17:42.338Z,12.40
2019-05-23T23:20:12.694Z,12.40
2019-05-23T23:22:43.246Z,12.30
2019-05-23T23:25:13.703Z,12.20
2019-05-23T23:27:43.979Z,12.20
2019-05-23T23:30:16.020Z,12.10
2019-05-23T23:32:46.359Z,12.20
2019-05-23T23:35:16.825Z,12.20
2019-05-23T23:37:47.167Z,12.30
2019-05-23T23:40:17.552Z,12.20
2019-05-23T23:42:47.990Z,12.20
2019-05-23T23:45:35.971Z,12.20
2019-05-23T23:48:24.034Z,12.20
2019-05-23T23:51:12.664Z,12.10
2019-05-23T23:54:00.599Z,12.10
2019-05-23T23:56:48.431Z,12.10
2019-05-23T23:59:18.015Z,12.00
